首页
METAR-TAF:

METAR-TAF

机场 :

蓬塔阿雷纳斯, 智利

纬度: 53-00S, 经度: 070-51W, 海拔: 37米

当前天气观测

该预报发布于26分钟前的18:00 UTC
风速11节,风向西北,在西北转西北之间变化
温度 17°C
湿度 36%
气压 1019 hPa
能见度10公里或以上
少量云层高于2000英尺

METAR: SCCI 031800Z 31011KT 270V340 9999 FEW020 17/02 Q1019 NOSIG

时间: 15:26 (18:26 UTC)

预报

该预报发布于2小时和15分钟前的16:11 UTC
预报有效从03日的 18点(UTC)到 04日的 18点(UTC)
风速10节,风向西
能见度10公里或以上
1500米以下无云,无积雨云
成为
从 04日的 09点(UTC)到 04日的 11点(UTC)
风速20节,风向西北

TAF: SCCI 031611Z 0318/0418 27010KT CAVOK TN07/0411Z TX17/0418Z BECMG 0409/0411 31020KT

超过4000个机场的气象观测和天气预报(METAR&TAF报告)。

可查询的气象台以黄色和红色小点在地图上表示。

将鼠标移到小点上方,可查看气象台名称。

然后点击查看天气观测和预报。

如需切换地图:点击带黑十字的绿色按钮放大地图;点击带横线的绿色按钮缩小地图;或者点击绿色箭头查看邻近地区的地图。


METAR-TAF: